createdAt,value
2018-04-17T00:00:37.056Z,76.40
2018-04-17T00:03:05.419Z,75.96
2018-04-17T00:05:33.862Z,75.69
2018-04-17T00:08:03.572Z,75.58
2018-04-17T00:10:32.055Z,75.49
2018-04-17T00:13:00.453Z,75.60
2018-04-17T00:15:28.808Z,75.68
2018-04-17T00:17:57.235Z,75.79
2018-04-17T00:20:25.815Z,75.80
2018-04-17T00:22:55.339Z,75.97
2018-04-17T00:25:23.781Z,75.99
2018-04-17T00:27:52.159Z,75.92
2018-04-17T00:30:20.967Z,75.96
2018-04-17T00:32:49.342Z,76.05
2018-04-17T00:35:17.738Z,76.17
2018-04-17T00:37:46.100Z,76.49
2018-04-17T00:40:14.635Z,76.70
2018-04-17T00:42:43.014Z,76.86
2018-04-17T00:45:12.198Z,76.96
2018-04-17T00:47:40.576Z,77.12
2018-04-17T00:50:08.918Z,77.23
2018-04-17T00:52:37.625Z,77.45
2018-04-17T00:55:06.038Z,77.44
2018-04-17T00:57:35.395Z,77.50
2018-04-17T01:00:05.002Z,77.54
2018-04-17T01:02:33.520Z,77.51
2018-04-17T01:05:01.899Z,77.58
2018-04-17T01:07:30.331Z,77.45
2018-04-17T01:09:58.751Z,77.55
2018-04-17T01:12:27.183Z,77.51
2018-04-17T01:14:55.596Z,77.50
2018-04-17T01:17:24.046Z,77.49
2018-04-17T01:19:53.434Z,77.41
2018-04-17T01:22:22.804Z,77.50
2018-04-17T01:24:51.160Z,77.53
2018-04-17T01:27:19.616Z,77.59
2018-04-17T01:29:48.012Z,77.79
2018-04-17T01:32:16.372Z,77.85
2018-04-17T01:34:44.715Z,77.82
2018-04-17T01:37:14.702Z,77.67
2018-04-17T01:39:43.046Z,77.64
2018-04-17T01:42:11.457Z,77.55
2018-04-17T01:44:40.008Z,77.58
2018-04-17T01:47:08.363Z,77.46
2018-04-17T01:49:36.844Z,77.47
2018-04-17T01:52:05.526Z,77.41
2018-04-17T01:54:34.992Z,77.49
2018-04-17T01:57:03.335Z,77.54
2018-04-17T01:59:32.513Z,77.68
2018-04-17T02:02:00.924Z,77.79
2018-04-17T02:04:29.299Z,77.85
2018-04-17T02:06:58.295Z,77.95
2018-04-17T02:09:26.780Z,78.11
2018-04-17T02:11:55.517Z,78.29
2018-04-17T02:14:24.859Z,78.25
2018-04-17T02:16:53.269Z,78.38
2018-04-17T02:19:21.628Z,78.38
2018-04-17T02:21:51.540Z,78.39
2018-04-17T02:24:19.912Z,78.39
2018-04-17T02:26:48.262Z,78.36
2018-04-17T02:29:16.654Z,78.33
2018-04-17T02:31:45.020Z,78.30
2018-04-17T02:34:13.378Z,78.33
2018-04-17T02:36:41.789Z,78.45
2018-04-17T02:39:10.135Z,78.62
2018-04-17T02:41:38.514Z,78.67
2018-04-17T02:44:06.984Z,78.61
2018-04-17T02:46:35.756Z,78.75
2018-04-17T02:49:04.120Z,78.92
2018-04-17T02:51:33.223Z,79.01
2018-04-17T02:54:01.683Z,79.03
2018-04-17T02:56:30.197Z,79.03
2018-04-17T02:58:58.671Z,79.10
2018-04-17T03:01:27.202Z,79.06
2018-04-17T03:03:55.734Z,79.11
2018-04-17T03:06:25.374Z,79.25
2018-04-17T03:08:53.744Z,79.43
2018-04-17T03:11:22.121Z,79.60
2018-04-17T03:13:50.601Z,79.73
2018-04-17T03:16:19.091Z,79.81
2018-04-17T03:18:47.457Z,79.76
2018-04-17T03:21:15.851Z,79.80
2018-04-17T03:23:44.243Z,79.79
2018-04-17T03:26:12.623Z,79.87
2018-04-17T03:28:41.902Z,79.93
2018-04-17T03:31:10.513Z,80.14
2018-04-17T03:33:39.307Z,80.37
2018-04-17T03:36:07.750Z,80.65
2018-04-17T03:38:36.180Z,80.89
2018-04-17T03:41:04.657Z,80.74
2018-04-17T03:43:33.853Z,80.47
2018-04-17T03:46:02.361Z,80.43
2018-04-17T03:48:32.404Z,80.37
2018-04-17T03:51:02.008Z,80.25
2018-04-17T03:53:30.487Z,80.11
2018-04-17T03:55:59.087Z,79.87
2018-04-17T03:58:27.658Z,79.73
2018-04-17T04:00:56.070Z,79.67
2018-04-17T04:03:24.521Z,79.67
2018-04-17T04:05:53.200Z,79.82
2018-04-17T04:08:21.602Z,79.98
2018-04-17T04:10:49.976Z,80.17
2018-04-17T04:13:18.461Z,80.35
2018-04-17T04:15:46.891Z,80.41
2018-04-17T04:18:27.293Z,80.45
2018-04-17T04:21:07.468Z,80.41
2018-04-17T04:23:48.861Z,80.32
2018-04-17T04:26:27.142Z,80.24
2018-04-17T04:28:55.624Z,80.23
2018-04-17T04:31:24.000Z,80.29
2018-04-17T04:33:52.400Z,80.25
2018-04-17T04:36:20.804Z,80.13
2018-04-17T04:38:49.173Z,80.17
2018-04-17T04:41:17.612Z,80.44
2018-04-17T04:43:46.019Z,80.44
2018-04-17T04:46:14.439Z,80.32
2018-04-17T04:48:42.949Z,80.21
2018-04-17T04:51:11.721Z,80.19
2018-04-17T04:53:40.287Z,80.14
2018-04-17T04:56:08.670Z,80.08
2018-04-17T04:58:37.155Z,80.13
2018-04-17T05:01:05.572Z,80.21
2018-04-17T05:03:34.160Z,80.21
2018-04-17T05:06:03.139Z,80.25
2018-04-17T05:08:31.524Z,80.24
2018-04-17T05:10:59.905Z,80.29
2018-04-17T05:13:28.560Z,80.21
2018-04-17T05:15:57.019Z,80.16
2018-04-17T05:18:25.505Z,80.00
2018-04-17T05:20:54.177Z,79.97
2018-04-17T05:23:24.359Z,80.06
2018-04-17T05:25:52.752Z,80.05
2018-04-17T05:28:23.194Z,80.07
2018-04-17T05:30:51.568Z,80.05
2018-04-17T05:33:19.987Z,80.16
2018-04-17T05:35:48.411Z,80.07
2018-04-17T05:38:16.797Z,79.99
2018-04-17T05:40:45.224Z,79.85
2018-04-17T05:43:15.009Z,79.94
2018-04-17T05:45:43.374Z,79.96
2018-04-17T05:48:12.755Z,79.85
2018-04-17T05:50:41.339Z,79.78
2018-04-17T05:53:09.954Z,79.63
2018-04-17T05:55:38.651Z,79.33
2018-04-17T05:58:07.443Z,79.13
2018-04-17T06:00:35.879Z,78.85
2018-04-17T06:03:04.834Z,78.76
2018-04-17T06:05:33.324Z,78.62
2018-04-17T06:08:01.762Z,78.51
2018-04-17T06:10:30.315Z,78.27
2018-04-17T06:12:58.764Z,78.16
2018-04-17T06:15:27.223Z,78.02
2018-04-17T06:17:55.806Z,77.89
2018-04-17T06:20:24.442Z,77.91
2018-04-17T06:22:52.928Z,77.71
2018-04-17T06:25:21.330Z,77.17
2018-04-17T06:27:49.775Z,76.62
2018-04-17T06:30:18.153Z,76.31
2018-04-17T06:32:46.805Z,75.60
2018-04-17T06:35:15.213Z,75.30
2018-04-17T06:37:43.814Z,75.15
2018-04-17T06:40:12.240Z,75.41
2018-04-17T06:42:40.801Z,74.93
2018-04-17T06:45:09.207Z,74.25
2018-04-17T06:47:37.675Z,73.63
2018-04-17T06:50:06.107Z,73.77
2018-04-17T06:52:34.592Z,73.25
2018-04-17T06:55:03.560Z,73.28
2018-04-17T06:57:32.193Z,73.13
2018-04-17T07:00:00.701Z,72.65
2018-04-17T07:02:29.225Z,72.38
2018-04-17T07:04:57.759Z,72.37
2018-04-17T07:07:26.247Z,72.40
2018-04-17T07:09:54.714Z,71.13
2018-04-17T07:12:23.810Z,71.60
2018-04-17T07:14:52.352Z,70.35
2018-04-17T07:17:20.773Z,70.03
2018-04-17T07:19:49.506Z,69.72
2018-04-17T07:22:17.933Z,69.67
2018-04-17T07:24:46.302Z,69.59
2018-04-17T07:27:15.207Z,68.44
2018-04-17T07:29:43.805Z,68.48
2018-04-17T07:32:12.189Z,67.71
2018-04-17T07:34:40.644Z,67.61
2018-04-17T07:37:09.028Z,66.77
2018-04-17T07:39:37.558Z,65.64
2018-04-17T07:42:05.989Z,65.27
2018-04-17T07:44:34.391Z,63.63
2018-04-17T07:47:14.637Z,63.87
2018-04-17T07:49:43.823Z,63.64
2018-04-17T07:52:12.204Z,63.34
2018-04-17T07:54:40.604Z,63.37
2018-04-17T07:57:09.065Z,63.52
2018-04-17T07:59:37.452Z,62.86
2018-04-17T08:02:05.895Z,62.34
2018-04-17T08:04:34.317Z,61.49
2018-04-17T08:07:02.715Z,61.52
2018-04-17T08:09:31.781Z,61.62
2018-04-17T08:12:00.209Z,60.64
2018-04-17T08:14:28.631Z,59.94
2018-04-17T08:16:57.755Z,59.37
2018-04-17T08:19:26.288Z,59.59
2018-04-17T08:21:54.855Z,59.93
2018-04-17T08:24:23.691Z,60.65
2018-04-17T08:26:52.078Z,59.13
2018-04-17T08:29:20.442Z,57.07
2018-04-17T08:31:48.941Z,56.52
2018-04-17T08:34:17.318Z,56.81
2018-04-17T08:36:46.251Z,56.92
2018-04-17T08:39:14.895Z,56.23
2018-04-17T08:41:43.277Z,55.88
2018-04-17T08:44:11.689Z,55.12
2018-04-17T08:46:42.359Z,54.48
2018-04-17T08:49:12.636Z,53.33
2018-04-17T08:51:41.216Z,51.60
2018-04-17T08:54:09.588Z,51.17
2018-04-17T08:56:37.949Z,51.75
2018-04-17T08:59:06.463Z,51.22
2018-04-17T09:01:34.911Z,51.00
2018-04-17T09:04:03.392Z,50.71
2018-04-17T09:06:31.787Z,51.24
2018-04-17T09:09:00.168Z,51.66
2018-04-17T09:11:28.548Z,50.76
2018-04-17T09:13:57.478Z,50.65
2018-04-17T09:16:26.328Z,49.77
2018-04-17T09:18:54.968Z,48.39
2018-04-17T09:21:24.251Z,45.31
2018-04-17T09:23:53.593Z,43.36
2018-04-17T09:26:22.015Z,41.91
2018-04-17T09:28:50.475Z,40.36
2018-04-17T09:31:18.852Z,39.54
2018-04-17T09:33:47.195Z,39.44
2018-04-17T09:36:16.208Z,39.77
2018-04-17T09:38:44.833Z,38.98
2018-04-17T09:41:13.192Z,38.17
2018-04-17T09:43:42.413Z,35.38
2018-04-17T09:46:10.788Z,33.86
2018-04-17T09:48:40.104Z,33.49
2018-04-17T09:51:08.520Z,33.22
2018-04-17T09:53:37.009Z,33.38
2018-04-17T09:56:05.471Z,34.26
2018-04-17T09:58:34.015Z,35.32
2018-04-17T10:01:02.480Z,33.36
2018-04-17T10:03:31.009Z,32.19
2018-04-17T10:06:00.822Z,31.72
2018-04-17T10:08:35.346Z,30.63
2018-04-17T10:11:03.785Z,30.17
2018-04-17T10:13:32.626Z,31.22
2018-04-17T10:16:01.235Z,31.28
2018-04-17T10:18:29.705Z,28.22
2018-04-17T10:20:58.130Z,29.04
2018-04-17T10:23:27.325Z,27.90
2018-04-17T10:25:56.114Z,27.33
2018-04-17T10:28:24.657Z,27.50
2018-04-17T10:30:53.814Z,28.39
2018-04-17T10:33:22.216Z,27.98
2018-04-17T10:35:50.642Z,28.64
2018-04-17T10:38:19.080Z,26.80
2018-04-17T10:40:47.462Z,26.16
2018-04-17T10:43:15.887Z,27.37
2018-04-17T10:45:44.220Z,28.06
2018-04-17T10:48:13.608Z,27.97
2018-04-17T10:50:42.072Z,28.94
2018-04-17T10:53:10.601Z,29.40
2018-04-17T10:55:39.111Z,29.85
2018-04-17T10:58:07.632Z,29.35
2018-04-17T11:00:36.029Z,30.50
2018-04-17T11:03:05.087Z,30.00
2018-04-17T11:05:33.504Z,28.79
2018-04-17T11:08:01.973Z,29.33
2018-04-17T11:10:30.511Z,30.08
2018-04-17T11:12:58.935Z,30.35
2018-04-17T11:15:27.467Z,31.37
2018-04-17T11:17:55.949Z,29.61
2018-04-17T11:20:24.529Z,28.49
2018-04-17T11:22:53.139Z,27.41
2018-04-17T11:25:22.022Z,27.25
2018-04-17T11:27:51.799Z,28.31
2018-04-17T11:30:20.445Z,28.49
2018-04-17T11:33:01.131Z,28.58
2018-04-17T11:35:30.371Z,27.85
2018-04-17T11:37:59.110Z,28.50
2018-04-17T11:40:27.541Z,28.95
2018-04-17T11:42:56.108Z,28.07
2018-04-17T11:45:24.507Z,28.00
2018-04-17T11:47:53.285Z,27.77
2018-04-17T11:50:21.763Z,27.50
2018-04-17T11:52:51.434Z,27.34
2018-04-17T11:55:19.868Z,27.57
2018-04-17T11:57:48.251Z,27.08
2018-04-17T12:00:16.797Z,26.34
2018-04-17T12:02:45.510Z,26.94
2018-04-17T12:05:13.946Z,27.28
2018-04-17T12:07:42.430Z,27.73
2018-04-17T12:10:10.807Z,27.47
2018-04-17T12:12:39.257Z,27.35
2018-04-17T12:15:07.829Z,27.33
2018-04-17T12:17:36.319Z,26.84
2018-04-17T12:20:04.812Z,26.60
2018-04-17T12:22:34.277Z,27.39
2018-04-17T12:25:02.705Z,25.97
2018-04-17T12:27:31.193Z,25.91
2018-04-17T12:29:59.964Z,26.31
2018-04-17T12:32:28.406Z,25.99
2018-04-17T12:34:56.866Z,25.94
2018-04-17T12:37:25.324Z,26.40
2018-04-17T12:39:53.912Z,27.24
2018-04-17T12:42:22.344Z,27.39
2018-04-17T12:44:51.280Z,27.05
2018-04-17T12:47:19.646Z,26.16
2018-04-17T12:49:48.042Z,26.80
2018-04-17T12:52:17.613Z,27.48
2018-04-17T12:54:46.007Z,26.75
2018-04-17T12:57:14.442Z,26.69
2018-04-17T12:59:42.913Z,26.60
2018-04-17T13:02:11.349Z,27.05
2018-04-17T13:04:39.704Z,27.21
2018-04-17T13:07:08.728Z,27.37
2018-04-17T13:09:37.076Z,27.40
2018-04-17T13:12:05.489Z,26.87
2018-04-17T13:14:33.905Z,26.42
2018-04-17T13:17:02.355Z,26.62
2018-04-17T13:19:30.822Z,26.80
2018-04-17T13:21:59.580Z,26.84
2018-04-17T13:24:28.396Z,26.57
2018-04-17T13:26:56.859Z,26.22
2018-04-17T13:29:25.461Z,26.19
2018-04-17T13:31:54.020Z,26.29
2018-04-17T13:34:22.428Z,26.22
2018-04-17T13:36:50.814Z,26.21
2018-04-17T13:39:19.186Z,28.54
2018-04-17T13:41:48.466Z,27.62
2018-04-17T13:44:16.963Z,27.12
2018-04-17T13:46:45.453Z,27.62
2018-04-17T13:49:14.549Z,26.97
2018-04-17T13:51:43.003Z,26.90
2018-04-17T13:54:11.405Z,27.46
2018-04-17T13:56:39.823Z,27.75
2018-04-17T13:59:08.393Z,27.95
2018-04-17T14:01:36.812Z,27.88
2018-04-17T14:04:05.277Z,27.96
2018-04-17T14:06:33.780Z,27.84
2018-04-17T14:09:02.293Z,27.75
2018-04-17T14:11:30.971Z,27.90
2018-04-17T14:14:00.958Z,28.04
2018-04-17T14:16:29.653Z,28.47
2018-04-17T14:18:58.244Z,28.18
2018-04-17T14:21:26.870Z,27.21
2018-04-17T14:23:57.024Z,27.99
2018-04-17T14:26:25.729Z,28.20
2018-04-17T14:28:54.866Z,28.15
2018-04-17T14:31:23.607Z,28.23
2018-04-17T14:33:53.942Z,29.40
2018-04-17T14:36:22.481Z,29.75
2018-04-17T14:38:51.153Z,28.96
2018-04-17T14:41:19.556Z,28.88
2018-04-17T14:43:50.423Z,28.82
2018-04-17T14:46:19.297Z,28.69
2018-04-17T14:48:48.048Z,28.73
2018-04-17T14:51:17.058Z,28.81
2018-04-17T14:53:45.423Z,29.36
2018-04-17T14:56:13.836Z,29.56
2018-04-17T14:58:42.280Z,30.35
2018-04-17T15:01:10.759Z,30.13
2018-04-17T15:03:39.156Z,30.21
2018-04-17T15:06:08.398Z,30.55
2018-04-17T15:08:36.901Z,30.72
2018-04-17T15:11:05.278Z,30.80
2018-04-17T15:13:34.680Z,32.22
2018-04-17T15:16:03.123Z,32.57
2018-04-17T15:18:31.967Z,31.94
2018-04-17T15:21:00.495Z,32.30
2018-04-17T15:23:29.547Z,31.93
2018-04-17T15:25:58.021Z,31.75
2018-04-17T15:28:26.648Z,32.62
2018-04-17T15:30:55.184Z,32.95
2018-04-17T15:33:23.690Z,34.57
2018-04-17T15:35:52.868Z,36.75
2018-04-17T15:38:21.271Z,36.77
2018-04-17T15:40:49.734Z,36.88
2018-04-17T15:43:18.415Z,36.52
2018-04-17T15:45:46.988Z,36.47
2018-04-17T15:48:16.354Z,36.84
2018-04-17T15:50:45.287Z,37.57
2018-04-17T15:53:13.874Z,37.46
2018-04-17T15:55:42.245Z,37.79
2018-04-17T15:58:11.040Z,38.07
2018-04-17T16:00:39.486Z,38.55
2018-04-17T16:03:07.999Z,38.75
2018-04-17T16:05:36.492Z,38.68
2018-04-17T16:08:05.068Z,39.12
2018-04-17T16:10:33.683Z,39.59
2018-04-17T16:13:02.567Z,39.69
2018-04-17T16:15:31.056Z,39.79
2018-04-17T16:17:59.621Z,39.67
2018-04-17T16:20:29.418Z,39.79
2018-04-17T16:22:57.845Z,40.47
2018-04-17T16:25:26.484Z,40.28
2018-04-17T16:27:56.080Z,40.25
2018-04-17T16:30:24.989Z,39.61
2018-04-17T16:32:53.769Z,39.98
2018-04-17T16:35:22.239Z,39.92
2018-04-17T16:37:50.644Z,38.99
2018-04-17T16:40:19.012Z,38.77
2018-04-17T16:42:47.780Z,39.32
2018-04-17T16:45:16.188Z,39.98
2018-04-17T16:47:44.856Z,40.53
2018-04-17T16:50:13.331Z,40.48
2018-04-17T16:52:41.818Z,40.49
2018-04-17T16:55:10.261Z,41.17
2018-04-17T16:57:38.996Z,41.43
2018-04-17T17:00:07.495Z,41.61
2018-04-17T17:02:35.905Z,41.89
2018-04-17T17:05:04.744Z,42.39
2018-04-17T17:07:33.350Z,42.31
2018-04-17T17:10:01.876Z,42.54
2018-04-17T17:12:31.136Z,42.55
2018-04-17T17:14:59.822Z,42.75
2018-04-17T17:17:28.780Z,42.63
2018-04-17T17:19:57.807Z,42.53
2018-04-17T17:22:26.706Z,42.35
2018-04-17T17:25:12.493Z,42.12
2018-04-17T17:27:50.393Z,41.52
2018-04-17T17:30:18.932Z,41.48
2018-04-17T17:32:47.521Z,41.87
2018-04-17T17:35:16.205Z,41.99
2018-04-17T17:37:47.260Z,41.77
2018-04-17T17:40:15.835Z,41.65
2018-04-17T17:42:44.337Z,42.30
2018-04-17T17:45:12.880Z,42.93
2018-04-17T17:47:41.369Z,43.58
2018-04-17T17:50:09.889Z,43.78
2018-04-17T17:52:40.022Z,43.78
2018-04-17T17:55:08.530Z,43.99
2018-04-17T17:57:37.317Z,43.94
2018-04-17T18:00:06.540Z,43.57
2018-04-17T18:02:35.378Z,43.53
2018-04-17T18:05:04.106Z,43.33
2018-04-17T18:07:33.650Z,43.61
2018-04-17T18:10:02.150Z,43.99
2018-04-17T18:12:30.842Z,43.89
2018-04-17T18:15:01.389Z,43.52
2018-04-17T18:17:30.860Z,43.40
2018-04-17T18:19:59.331Z,43.95
2018-04-17T18:22:28.760Z,43.14
2018-04-17T18:24:57.331Z,42.91
2018-04-17T18:27:26.039Z,43.86
2018-04-17T18:29:56.139Z,44.00
2018-04-17T18:32:25.741Z,43.70
2018-04-17T18:34:55.445Z,43.73
2018-04-17T18:37:25.171Z,44.02
2018-04-17T18:39:54.268Z,44.24
2018-04-17T18:42:22.737Z,44.13
2018-04-17T18:44:52.259Z,44.44
2018-04-17T18:47:21.653Z,44.68
2018-04-17T18:49:50.108Z,44.66
2018-04-17T18:52:18.595Z,45.39
2018-04-17T18:54:47.968Z,45.08
2018-04-17T18:57:17.717Z,45.09
2018-04-17T18:59:46.268Z,45.41
2018-04-17T19:02:14.684Z,45.94
2018-04-17T19:04:44.369Z,46.56
2018-04-17T19:07:13.380Z,45.75
2018-04-17T19:09:41.911Z,45.90
2018-04-17T19:12:10.670Z,46.12
2018-04-17T19:14:40.401Z,45.90
2018-04-17T19:17:09.150Z,45.79
2018-04-17T19:19:37.767Z,45.85
2018-04-17T19:22:06.545Z,46.06
2018-04-17T19:24:36.023Z,46.16
2018-04-17T19:27:06.515Z,46.24
2018-04-17T19:29:35.995Z,46.28
2018-04-17T19:32:04.832Z,46.76
2018-04-17T19:34:35.554Z,47.30
2018-04-17T19:37:04.579Z,47.47
2018-04-17T19:39:33.065Z,47.99
2018-04-17T19:42:01.767Z,48.42
2018-04-17T19:44:30.607Z,49.00
2018-04-17T19:46:59.226Z,49.30
2018-04-17T19:49:28.442Z,49.56
2018-04-17T19:52:00.445Z,49.91
2018-04-17T19:54:29.204Z,50.32
2018-04-17T19:56:59.104Z,50.53
2018-04-17T19:59:28.047Z,51.00
2018-04-17T20:01:56.876Z,51.40
2018-04-17T20:04:25.741Z,51.93
2018-04-17T20:06:55.200Z,52.22
2018-04-17T20:09:23.987Z,52.81
2018-04-17T20:11:52.430Z,52.94
2018-04-17T20:14:21.669Z,53.32
2018-04-17T20:16:50.102Z,53.65
2018-04-17T20:19:19.530Z,53.63
2018-04-17T20:21:49.318Z,53.66
2018-04-17T20:24:17.701Z,54.08
2018-04-17T20:26:46.225Z,54.00
2018-04-17T20:29:15.053Z,54.38
2018-04-17T20:31:43.450Z,54.52
2018-04-17T20:34:13.277Z,54.58
2018-04-17T20:36:41.722Z,54.83
2018-04-17T20:39:10.342Z,55.00
2018-04-17T20:41:38.802Z,55.22
2018-04-17T20:44:07.487Z,55.12
2018-04-17T20:46:35.984Z,55.10
2018-04-17T20:49:04.475Z,55.44
2018-04-17T20:51:33.759Z,55.39
2018-04-17T20:54:03.188Z,55.69
2018-04-17T20:56:32.128Z,55.76
2018-04-17T20:59:02.230Z,55.93
2018-04-17T21:01:31.050Z,56.23
2018-04-17T21:03:59.576Z,56.14
2018-04-17T21:06:28.474Z,56.25
2018-04-17T21:08:57.040Z,56.41
2018-04-17T21:11:25.838Z,56.43
2018-04-17T21:13:54.525Z,56.64
2018-04-17T21:16:23.758Z,56.74
2018-04-17T21:18:52.203Z,56.88
2018-04-17T21:21:21.534Z,56.95
2018-04-17T21:23:50.116Z,57.07
2018-04-17T21:26:18.603Z,57.27
2018-04-17T21:28:47.034Z,57.41
2018-04-17T21:31:15.401Z,57.38
2018-04-17T21:33:43.808Z,57.48
2018-04-17T21:36:12.294Z,57.58
2018-04-17T21:38:40.729Z,57.47
2018-04-17T21:41:09.179Z,57.76
2018-04-17T21:43:37.672Z,57.60
2018-04-17T21:46:06.862Z,57.80
2018-04-17T21:48:36.286Z,57.72
2018-04-17T21:51:04.988Z,57.66
2018-04-17T21:53:33.533Z,57.83
2018-04-17T21:56:01.989Z,57.91
2018-04-17T21:58:31.451Z,58.02
2018-04-17T22:01:00.291Z,58.32
2018-04-17T22:03:28.833Z,58.27
2018-04-17T22:05:57.302Z,58.05
2018-04-17T22:08:26.821Z,57.85
2018-04-17T22:10:55.251Z,57.98
2018-04-17T22:13:25.313Z,58.14
2018-04-17T22:15:53.656Z,58.00
2018-04-17T22:18:22.035Z,57.85
2018-04-17T22:20:50.489Z,57.89
2018-04-17T22:23:18.976Z,57.76
2018-04-17T22:25:47.336Z,57.64
2018-04-17T22:28:15.901Z,57.57
2018-04-17T22:30:44.374Z,57.56
2018-04-17T22:33:13.525Z,57.36
2018-04-17T22:35:41.913Z,57.59
2018-04-17T22:38:10.286Z,57.32
2018-04-17T22:40:38.724Z,57.52
2018-04-17T22:43:08.689Z,57.24
2018-04-17T22:45:37.111Z,57.42
2018-04-17T22:48:05.511Z,57.45
2018-04-17T22:50:33.944Z,57.47
2018-04-17T22:53:02.422Z,57.40
2018-04-17T22:55:31.029Z,57.25
2018-04-17T22:57:59.602Z,57.23
2018-04-17T23:00:28.034Z,57.14
2018-04-17T23:02:56.515Z,57.22
2018-04-17T23:05:25.863Z,56.98
2018-04-17T23:07:54.343Z,56.95
2018-04-17T23:10:22.732Z,56.96
2018-04-17T23:12:51.937Z,56.96
2018-04-17T23:15:20.311Z,56.91
2018-04-17T23:17:48.697Z,57.01
2018-04-17T23:20:17.118Z,56.84
2018-04-17T23:22:45.470Z,56.61
2018-04-17T23:25:13.843Z,56.57
2018-04-17T23:27:42.308Z,56.73
2018-04-17T23:30:10.682Z,56.49
2018-04-17T23:32:39.107Z,56.50
2018-04-17T23:35:07.561Z,56.44
2018-04-17T23:37:35.966Z,56.30
2018-04-17T23:40:04.432Z,56.44
2018-04-17T23:42:33.194Z,56.44
2018-04-17T23:45:01.744Z,56.48
2018-04-17T23:47:30.121Z,56.29
2018-04-17T23:49:59.678Z,56.39
2018-04-17T23:52:28.122Z,56.30
2018-04-17T23:54:56.634Z,56.35
2018-04-17T23:57:25.219Z,56.60
2018-04-17T23:59:54.108Z,56.54
